Rockefeller, Pennsylvania
Current Conditions -  °F | °C
As of 10:53 AM on Saturday 22 Nov 2014 (Local Time) from KSEG Reporting Station
Clear Clear  
Wind Chill: 25°   Ceiling: Unl
Heat Index: 33°   Visibility: 10mi
Dew Point: 13°   Wind: 10mph
Humidity: 43%   Direction: 200°SSW
Pressure: 30.39"   Gusts: 17mph
Location:  40.83°N, 76.761°W
Report Text: KSEG 221553Z AUTO 20009G15KT 10SM CLR 01/M11 A3039 RMK AO2 SLP296 T00061106
Loading
Personal Weather Stations






























Interactive Weather Map New forecast layout! Learn more

10-Day Weather Forecast

Advertisements
Track Severe Weather on mobile